Time;durP1;ratioP1;P1;durP2;ratioP2;P2;SDS_P1;SDS_P2;PMS_P1;PMS_P2;Temp;Humidity;BMP_temperature;BMP_pressure;BME280_temperature;BME280_humidity;BME280_pressure;Samples;Min_cycle;Max_cycle;Signal;HPM_P1;HPM_P2
2022/09/19 00:01:59;;;;;;;4.17;1.30;;;12.80;99.90;;;;;;5050833;28;20204;-30
2022/09/19 00:04:32;;;;;;;5.33;1.20;;;12.80;99.90;;;;;;5049439;28;20290;-31
2022/09/19 00:07:00;;;;;;;5.37;1.60;;;12.80;99.90;;;;;;5049997;28;20211;-31
2022/09/19 00:09:32;;;;;;;4.90;1.70;;;12.80;99.90;;;;;;5052728;28;20223;-31
2022/09/19 00:12:02;;;;;;;7.33;1.70;;;12.80;99.90;;;;;;5055883;28;20208;-31
2022/09/19 00:14:33;;;;;;;5.67;1.40;;;12.70;99.90;;;;;;5048515;28;20647;-31
2022/09/19 00:17:07;;;;;;;4.90;1.40;;;12.80;99.90;;;;;;5048628;28;20250;-31
2022/09/19 00:19:35;;;;;;;3.50;1.33;;;12.80;99.90;;;;;;5071822;28;20281;-31
2022/09/19 00:22:03;;;;;;;5.87;1.57;;;12.80;99.90;;;;;;5086882;28;20210;-31
2022/09/19 00:24:45;;;;;;;4.40;1.43;;;12.80;99.90;;;;;;5048650;28;20266;-31
2022/09/19 00:27:20;;;;;;;6.03;1.40;;;12.80;99.90;;;;;;5048930;28;20688;-31
2022/09/19 00:29:50;;;;;;;5.47;1.47;;;12.70;99.90;;;;;;5049628;28;20214;-31
2022/09/19 00:32:21;;;;;;;3.10;1.17;;;12.70;99.90;;;;;;5049776;28;20315;-31
2022/09/19 00:34:52;;;;;;;7.13;1.60;;;12.70;99.90;;;;;;5047286;28;20591;-31
2022/09/19 00:37:21;;;;;;;4.70;1.70;;;12.70;99.90;;;;;;5031935;28;20269;-31
2022/09/19 00:39:48;;;;;;;4.73;1.80;;;12.60;99.90;;;;;;5052191;28;20212;-31
2022/09/19 00:42:20;;;;;;;4.03;1.60;;;12.60;99.90;;;;;;5049870;28;20554;-31
2022/09/19 00:44:54;;;;;;;5.07;1.73;;;12.60;99.90;;;;;;5056801;28;20207;-31
2022/09/19 00:47:29;;;;;;;3.90;1.77;;;12.60;99.90;;;;;;5069262;28;20203;-31
2022/09/19 00:50:01;;;;;;;5.80;1.80;;;12.60;99.90;;;;;;5069097;28;20732;-31
2022/09/19 00:52:42;;;;;;;4.03;1.90;;;12.60;99.90;;;;;;5057905;28;20204;-31
2022/09/19 00:55:12;;;;;;;4.20;1.97;;;12.60;99.90;;;;;;5063614;28;20215;-31
2022/09/19 00:58:14;;;;;;;6.97;2.37;;;12.50;99.90;;;;;;5061152;28;20239;-31
2022/09/19 01:00:41;;;;;;;6.73;1.90;;;12.50;99.90;;;;;;5054088;28;20207;-31
2022/09/19 01:03:11;;;;;;;5.63;2.40;;;12.50;99.90;;;;;;5050189;28;20663;-31
2022/09/19 01:06:15;;;;;;;5.10;2.13;;;12.50;99.90;;;;;;5048328;28;20203;-31
2022/09/19 01:08:43;;;;;;;4.33;1.90;;;12.50;99.90;;;;;;5052243;28;20207;-31
2022/09/19 01:11:22;;;;;;;4.43;1.50;;;12.40;99.90;;;;;;5053427;28;20219;-31
2022/09/19 01:14:09;;;;;;;4.67;1.87;;;12.40;99.90;;;;;;5054493;28;20207;-31
2022/09/19 01:16:52;;;;;;;7.47;1.87;;;12.40;99.90;;;;;;5052168;28;20211;-31
2022/09/19 01:19:46;;;;;;;6.37;1.70;;;12.40;99.90;;;;;;5044160;28;20192;-31
2022/09/19 01:22:43;;;;;;;3.73;1.97;;;12.30;99.90;;;;;;5060675;28;20595;-31
2022/09/19 01:25:10;;;;;;;5.77;1.80;;;12.30;99.90;;;;;;5061043;28;20227;-31
2022/09/19 01:27:56;;;;;;;4.97;1.60;;;12.30;99.90;;;;;;5047783;28;20227;-31
2022/09/19 01:30:23;;;;;;;4.53;1.73;;;12.20;99.90;;;;;;5054801;28;20207;-31
2022/09/19 01:33:06;;;;;;;5.37;2.37;;;12.20;99.90;;;;;;5060678;28;20223;-31
2022/09/19 01:35:40;;;;;;;6.63;1.83;;;12.20;99.90;;;;;;5048183;28;20212;-31
2022/09/19 01:38:13;;;;;;;7.87;2.03;;;12.10;99.90;;;;;;5049555;28;20232;-31
2022/09/19 01:40:41;;;;;;;5.53;2.00;;;12.10;99.90;;;;;;5067633;28;20698;-31
2022/09/19 01:43:17;;;;;;;3.60;1.40;;;12.10;99.90;;;;;;5067641;28;20200;-30
2022/09/19 01:45:47;;;;;;;5.57;1.93;;;12.10;99.90;;;;;;5067240;28;20769;-31
2022/09/19 01:48:47;;;;;;;6.27;1.93;;;12.10;99.90;;;;;;5066680;28;20674;-30
2022/09/19 01:51:33;;;;;;;8.73;2.10;;;12.00;99.90;;;;;;5047695;28;20220;-31
2022/09/19 01:54:21;;;;;;;7.50;1.93;;;12.00;99.90;;;;;;5046850;28;20210;-31
2022/09/19 01:57:19;;;;;;;2.93;1.30;;;12.00;99.90;;;;;;5048317;28;20227;-31
2022/09/19 01:59:55;;;;;;;6.47;1.47;;;12.00;99.90;;;;;;5047217;28;20606;-31
2022/09/19 02:02:34;;;;;;;7.10;1.93;;;12.00;99.90;;;;;;5048252;28;20195;-31
2022/09/19 02:05:13;;;;;;;4.60;1.23;;;12.10;99.90;;;;;;5048039;28;20211;-31
2022/09/19 02:08:05;;;;;;;7.60;1.40;;;12.10;99.90;;;;;;5050003;28;20300;-31
2022/09/19 02:10:42;;;;;;;6.30;1.30;;;12.10;99.90;;;;;;5060072;28;20208;-31
2022/09/19 02:13:11;;;;;;;6.13;1.37;;;12.20;99.90;;;;;;5067192;28;20673;-31
2022/09/19 02:15:46;;;;;;;5.30;1.57;;;12.20;99.90;;;;;;5066334;28;20665;-31
2022/09/19 02:18:26;;;;;;;4.97;1.50;;;12.20;99.90;;;;;;5066559;28;20206;-31
2022/09/19 02:21:08;;;;;;;3.80;1.33;;;12.30;99.90;;;;;;5086433;28;20236;-31
2022/09/19 02:23:47;;;;;;;4.93;1.20;;;12.40;99.90;;;;;;5050085;28;20215;-31
2022/09/19 02:26:19;;;;;;;5.17;1.60;;;12.40;99.90;;;;;;5053243;28;20588;-30
2022/09/19 02:28:54;;;;;;;4.43;1.40;;;12.40;99.90;;;;;;5064995;28;20793;-30
2022/09/19 02:31:27;;;;;;;5.23;1.50;;;12.40;99.90;;;;;;5066414;28;20207;-31
2022/09/19 02:33:59;;;;;;;8.50;1.77;;;12.50;99.90;;;;;;5067723;28;20216;-31
2022/09/19 02:36:41;;;;;;;8.40;1.50;;;12.50;99.90;;;;;;5050721;28;20208;-31
2022/09/19 02:39:27;;;;;;;3.50;1.17;;;12.60;99.90;;;;;;5051251;28;20211;-30
2022/09/19 02:41:57;;;;;;;4.70;1.30;;;12.60;99.90;;;;;;5046855;28;20213;-31
2022/09/19 02:45:19;;;;;;;5.83;1.40;;;12.60;99.90;;;;;;5065858;28;20289;-31
2022/09/19 02:48:11;;;;;;;7.77;2.10;;;12.60;99.90;;;;;;5044489;28;20212;-30
2022/09/19 02:51:02;;;;;;;6.27;1.20;;;12.60;99.90;;;;;;5050936;28;20228;-31
2022/09/19 02:53:40;;;;;;;4.37;1.37;;;12.70;99.90;;;;;;5060669;28;20582;-31
2022/09/19 02:56:14;;;;;;;6.17;1.33;;;12.70;99.90;;;;;;5071096;28;20238;-31
2022/09/19 02:58:57;;;;;;;7.27;1.77;;;12.70;99.90;;;;;;5068912;28;20304;-31
2022/09/19 03:01:32;;;;;;;3.87;1.20;;;12.70;99.90;;;;;;5056014;28;20212;-31
2022/09/19 03:04:12;;;;;;;8.47;1.90;;;12.70;99.90;;;;;;5050543;28;20196;-31
2022/09/19 03:06:52;;;;;;;6.53;1.27;;;12.80;99.90;;;;;;5050553;28;20223;-31
2022/09/19 03:09:26;;;;;;;6.20;1.13;;;12.80;99.90;;;;;;5053543;28;20192;-30
2022/09/19 03:12:08;;;;;;;5.40;1.33;;;12.80;99.90;;;;;;5071163;28;20195;-31
2022/09/19 03:14:38;;;;;;;5.93;1.87;;;12.80;99.90;;;;;;5069791;28;20207;-31
2022/09/19 03:17:09;;;;;;;7.03;1.37;;;12.80;99.90;;;;;;5067050;28;20613;-30
2022/09/19 03:19:43;;;;;;;5.90;1.87;;;12.80;99.90;;;;;;5062905;28;20207;-31
2022/09/19 03:22:10;;;;;;;4.40;1.23;;;12.90;99.90;;;;;;5061396;28;20207;-30
2022/09/19 03:24:41;;;;;;;3.90;1.40;;;12.90;99.90;;;;;;5056735;28;20754;-30
2022/09/19 03:27:08;;;;;;;7.40;1.30;;;12.90;99.90;;;;;;5050589;28;20211;-31
2022/09/19 03:29:38;;;;;;;7.53;1.50;;;12.90;99.90;;;;;;5049349;28;20665;-30
2022/09/19 03:32:10;;;;;;;6.23;1.57;;;12.90;99.90;;;;;;5051388;28;20303;-31
2022/09/19 03:34:40;;;;;;;7.13;1.63;;;12.90;99.90;;;;;;5058258;28;20295;-31
2022/09/19 03:37:11;;;;;;;5.63;1.20;;;12.90;99.90;;;;;;5061194;28;20214;-31
2022/09/19 03:39:38;;;;;;;4.83;1.30;;;12.90;99.90;;;;;;5069859;28;20269;-31
2022/09/19 03:42:12;;;;;;;8.93;1.40;;;12.90;99.90;;;;;;5069363;28;20214;-31
2022/09/19 03:44:41;;;;;;;6.33;1.30;;;13.00;99.90;;;;;;5069327;28;20196;-31
2022/09/19 03:47:15;;;;;;;4.30;1.30;;;12.90;99.90;;;;;;5065293;28;20197;-31
2022/09/19 03:49:49;;;;;;;5.60;1.43;;;12.90;99.90;;;;;;5063301;28;20216;-31
2022/09/19 03:52:18;;;;;;;5.70;1.20;;;12.90;99.90;;;;;;5063152;28;20294;-31
2022/09/19 03:54:45;;;;;;;6.67;1.50;;;12.90;99.90;;;;;;5069131;28;20203;-31
2022/09/19 03:57:13;;;;;;;5.70;2.00;;;12.90;99.90;;;;;;5070413;28;20207;-31
2022/09/19 03:59:42;;;;;;;9.13;2.30;;;12.90;99.90;;;;;;5056393;28;20240;-31
2022/09/19 04:02:12;;;;;;;6.40;1.50;;;12.90;99.90;;;;;;5049132;28;20250;-31
2022/09/19 04:04:39;;;;;;;4.07;1.50;;;12.90;99.90;;;;;;5049435;28;20200;-31
2022/09/19 04:07:09;;;;;;;7.90;2.13;;;12.90;99.90;;;;;;5058640;28;20791;-31
2022/09/19 04:09:36;;;;;;;4.53;1.47;;;12.80;99.90;;;;;;5064573;28;20212;-31
2022/09/19 04:12:06;;;;;;;5.83;1.40;;;12.80;99.90;;;;;;5070320;28;20719;-31
2022/09/19 04:14:35;;;;;;;4.67;1.20;;;12.80;99.90;;;;;;5052286;28;20234;-31
2022/09/19 04:17:03;;;;;;;6.30;1.70;;;12.70;99.90;;;;;;5069711;28;20207;-31
2022/09/19 04:19:52;;;;;;;5.17;1.67;;;12.70;99.90;;;;;;5082407;28;20211;-31
2022/09/19 04:22:26;;;;;;;4.23;1.30;;;12.70;99.90;;;;;;5058327;28;20218;-31
2022/09/19 04:24:56;;;;;;;6.77;1.23;;;12.60;99.90;;;;;;5050493;28;20208;-30
2022/09/19 04:27:25;;;;;;;5.63;1.50;;;12.60;99.90;;;;;;5066525;28;20332;-31
2022/09/19 04:29:58;;;;;;;8.57;1.77;;;12.60;99.90;;;;;;5060204;28;20250;-31
2022/09/19 04:32:28;;;;;;;5.67;1.60;;;12.50;99.90;;;;;;5070013;28;20204;-31
2022/09/19 04:34:59;;;;;;;7.70;1.50;;;12.50;99.90;;;;;;5066044;28;20196;-31
2022/09/19 04:37:29;;;;;;;5.80;1.40;;;12.50;99.90;;;;;;5058828;28;20208;-31
2022/09/19 04:39:58;;;;;;;7.27;1.43;;;12.40;99.90;;;;;;5057251;28;20566;-31
2022/09/19 04:42:28;;;;;;;6.43;1.83;;;12.40;99.90;;;;;;5055486;28;20308;-31
2022/09/19 04:44:56;;;;;;;5.90;1.80;;;12.40;99.90;;;;;;5069236;28;20203;-31
2022/09/19 04:47:23;;;;;;;7.30;1.67;;;12.30;99.90;;;;;;5067914;28;20199;-31
2022/09/19 04:49:50;;;;;;;5.57;1.37;;;12.30;99.90;;;;;;5065363;28;20204;-31
2022/09/19 04:52:19;;;;;;;5.80;1.77;;;12.20;99.90;;;;;;5063552;28;20292;-31
2022/09/19 04:54:48;;;;;;;4.17;2.00;;;12.20;99.90;;;;;;5068761;28;20212;-32
2022/09/19 04:57:17;;;;;;;8.53;1.60;;;12.20;99.90;;;;;;5066695;28;20203;-31
2022/09/19 04:59:47;;;;;;;3.80;1.37;;;12.20;99.90;;;;;;5057637;28;20251;-31
2022/09/19 05:02:14;;;;;;;6.47;2.17;;;12.10;99.90;;;;;;5047854;28;20554;-32
2022/09/19 05:04:45;;;;;;;5.73;1.50;;;12.10;99.90;;;;;;5046258;28;20204;-32
2022/09/19 05:07:15;;;;;;;3.40;1.53;;;12.00;99.90;;;;;;5053177;28;20223;-31
2022/09/19 05:09:42;;;;;;;3.40;1.40;;;12.00;99.90;;;;;;5052982;28;20559;-31
2022/09/19 05:12:12;;;;;;;5.57;2.63;;;12.00;99.90;;;;;;5047250;28;20253;-31
2022/09/19 05:14:39;;;;;;;5.63;1.90;;;12.00;99.90;;;;;;5047590;28;20200;-31
2022/09/19 05:17:09;;;;;;;5.37;1.50;;;12.00;99.90;;;;;;5051012;28;20238;-31
2022/09/19 05:19:36;;;;;;;6.97;1.53;;;11.90;99.90;;;;;;5073393;28;20218;-31
2022/09/19 05:22:06;;;;;;;7.47;1.80;;;11.90;99.90;;;;;;5058642;28;20223;-30
2022/09/19 05:24:35;;;;;;;6.00;1.67;;;11.90;99.90;;;;;;5046558;28;20299;-30
2022/09/19 05:27:03;;;;;;;7.07;1.60;;;11.90;99.90;;;;;;5058364;28;20220;-31
2022/09/19 05:29:36;;;;;;;3.77;1.60;;;11.90;99.90;;;;;;5049960;28;20208;-31
2022/09/19 05:32:04;;;;;;;5.67;2.03;;;11.90;99.90;;;;;;5048953;28;20216;-31
2022/09/19 05:34:36;;;;;;;7.20;1.63;;;11.80;99.90;;;;;;5059837;28;20204;-30
2022/09/19 05:37:05;;;;;;;4.73;1.50;;;11.80;99.90;;;;;;5065581;28;20298;-31
2022/09/19 05:39:37;;;;;;;5.70;1.90;;;11.80;99.90;;;;;;5067188;28;20318;-31
2022/09/19 05:42:07;;;;;;;6.03;1.50;;;11.80;99.90;;;;;;5058661;28;20778;-31
2022/09/19 05:44:40;;;;;;;7.17;1.30;;;11.70;99.90;;;;;;5067924;28;20642;-31
2022/09/19 05:47:10;;;;;;;3.77;1.60;;;11.70;99.90;;;;;;5067856;28;20740;-31
2022/09/19 05:49:41;;;;;;;5.30;1.70;;;11.70;99.90;;;;;;5046664;28;20278;-31
2022/09/19 05:54:56;;;;;;;7.03;2.37;;;11.70;99.90;;;;;;5049740;28;20212;-31
2022/09/19 05:57:23;;;;;;;5.03;2.00;;;11.70;99.90;;;;;;5067430;28;21689;-31
2022/09/19 05:59:51;;;;;;;6.90;2.00;;;11.60;99.90;;;;;;5065826;28;20242;-31
2022/09/19 06:02:20;;;;;;;8.90;2.37;;;11.60;99.90;;;;;;5068384;28;20191;-31
2022/09/19 06:04:47;;;;;;;6.33;2.03;;;11.60;99.90;;;;;;5064328;28;20841;-31
2022/09/19 06:07:17;;;;;;;7.13;2.20;;;11.60;99.90;;;;;;5054284;28;20237;-31
2022/09/19 06:09:49;;;;;;;7.77;2.27;;;11.70;99.90;;;;;;5046524;28;20258;-31
2022/09/19 06:12:19;;;;;;;7.13;2.30;;;11.70;99.90;;;;;;5048574;28;20226;-32
2022/09/19 06:14:50;;;;;;;8.33;2.00;;;11.70;99.90;;;;;;5048054;28;20239;-31
2022/09/19 06:17:17;;;;;;;7.87;2.07;;;11.70;99.90;;;;;;5067381;28;20203;-31
2022/09/19 06:19:47;;;;;;;6.97;1.70;;;11.80;99.90;;;;;;5072149;28;20617;-31
2022/09/19 06:22:19;;;;;;;10.77;2.10;;;11.80;99.90;;;;;;5052102;28;20224;-32
2022/09/19 06:24:48;;;;;;;9.43;2.53;;;11.80;99.90;;;;;;5061351;28;20253;-30
2022/09/19 06:27:18;;;;;;;5.47;2.10;;;11.80;99.90;;;;;;5071863;28;20211;-30
2022/09/19 06:29:48;;;;;;;10.17;2.27;;;11.90;99.90;;;;;;5065318;28;20204;-30
2022/09/19 06:32:20;;;;;;;5.73;2.00;;;11.80;99.90;;;;;;5049385;28;20246;-30
2022/09/19 06:34:47;;;;;;;5.87;1.30;;;11.80;99.90;;;;;;5061989;28;20262;-32
2022/09/19 06:37:24;;;;;;;5.47;2.07;;;11.90;99.90;;;;;;5061793;28;20754;-30
2022/09/19 06:39:51;;;;;;;4.53;1.80;;;11.90;99.90;;;;;;5054808;28;20232;-30
2022/09/19 06:42:19;;;;;;;4.77;1.70;;;11.90;99.90;;;;;;5055219;28;20212;-30
2022/09/19 06:44:46;;;;;;;4.67;1.80;;;12.00;99.90;;;;;;5057595;28;20651;-31
2022/09/19 06:47:13;;;;;;;4.47;1.40;;;12.00;99.90;;;;;;5056407;28;20238;-31
2022/09/19 06:49:40;;;;;;;8.57;1.90;;;12.10;99.90;;;;;;5051428;28;20224;-31
2022/09/19 06:52:08;;;;;;;5.87;1.80;;;12.10;99.90;;;;;;5049875;28;20648;-31
2022/09/19 06:54:37;;;;;;;6.77;1.73;;;12.20;99.90;;;;;;5059492;28;20637;-31
2022/09/19 06:57:11;;;;;;;5.50;1.50;;;12.20;99.90;;;;;;5055160;28;20204;-31
2022/09/19 06:59:40;;;;;;;6.57;1.83;;;12.30;99.90;;;;;;5058757;28;20273;-31
2022/09/19 07:02:13;;;;;;;5.13;1.90;;;12.40;99.90;;;;;;5062016;28;20206;-31
2022/09/19 07:04:40;;;;;;;3.53;1.70;;;12.40;99.90;;;;;;5053928;28;20223;-31
2022/09/19 07:07:08;;;;;;;7.60;2.10;;;12.50;99.90;;;;;;5050327;28;20291;-31
2022/09/19 07:09:35;;;;;;;6.23;2.00;;;12.50;99.90;;;;;;5050045;28;20239;-31
2022/09/19 07:12:05;;;;;;;4.13;2.10;;;12.60;99.90;;;;;;5067403;28;20583;-31
2022/09/19 07:14:32;;;;;;;7.60;2.07;;;12.60;99.90;;;;;;5056000;28;20206;-31
2022/09/19 07:16:59;;;;;;;7.53;2.13;;;12.70;99.90;;;;;;5051244;28;20215;-31
2022/09/19 07:19:26;;;;;;;6.80;2.13;;;12.70;99.90;;;;;;5071464;28;20227;-31
2022/09/19 07:21:54;;;;;;;5.40;2.07;;;12.80;99.90;;;;;;5066491;28;20196;-31
2022/09/19 07:24:24;;;;;;;5.43;1.90;;;12.80;99.90;;;;;;5052682;28;20577;-31
2022/09/19 07:26:53;;;;;;;7.17;2.00;;;12.80;99.90;;;;;;5070569;28;20640;-31
2022/09/19 07:29:22;;;;;;;5.87;2.23;;;12.80;99.90;;;;;;5067036;28;20257;-31
2022/09/19 07:31:50;;;;;;;4.57;1.97;;;12.80;99.90;;;;;;5052519;28;20218;-31
2022/09/19 07:34:19;;;;;;;6.57;1.80;;;12.80;99.90;;;;;;5058289;28;20234;-31
2022/09/19 07:36:46;;;;;;;10.07;2.37;;;12.90;99.90;;;;;;5063480;28;20218;-31
2022/09/19 07:39:18;;;;;;;7.60;1.90;;;12.90;99.90;;;;;;5069936;28;20597;-32
2022/09/19 07:41:50;;;;;;;5.17;1.97;;;12.90;99.90;;;;;;5056232;28;21030;-31
2022/09/19 07:44:18;;;;;;;4.20;1.70;;;12.90;99.90;;;;;;5052062;28;20212;-31
2022/09/19 07:49:43;;;;;;;5.43;2.27;;;12.90;99.90;;;;;;5051169;28;20211;-31
2022/09/19 07:52:12;;;;;;;3.47;1.53;;;12.90;99.90;;;;;;5069547;28;20592;-31
2022/09/19 07:54:40;;;;;;;6.60;2.07;;;13.00;99.90;;;;;;5063474;28;20207;-31
2022/09/19 07:57:07;;;;;;;5.00;2.00;;;13.00;99.90;;;;;;5064307;28;20215;-31
2022/09/19 07:59:39;;;;;;;5.10;2.00;;;13.00;99.90;;;;;;5061581;28;20240;-31
2022/09/19 08:02:09;;;;;;;7.83;2.20;;;13.10;99.90;;;;;;5054981;28;20201;-31
2022/09/19 08:04:37;;;;;;;5.47;1.87;;;13.20;99.90;;;;;;5048009;28;20212;-31
2022/09/19 08:07:05;;;;;;;6.27;1.90;;;13.20;99.90;;;;;;5059685;28;20218;-31
2022/09/19 08:09:33;;;;;;;7.43;2.07;;;13.30;99.90;;;;;;5049854;28;20629;-30
2022/09/19 08:12:05;;;;;;;7.47;2.03;;;13.40;99.90;;;;;;5049321;28;20262;-31
2022/09/19 08:14:32;;;;;;;5.90;1.93;;;13.50;99.90;;;;;;5049391;28;20701;-31
2022/09/19 08:17:01;;;;;;;8.50;2.40;;;13.60;99.90;;;;;;5056015;28;20218;-31
2022/09/19 08:19:31;;;;;;;4.03;2.00;;;13.70;99.90;;;;;;5075074;28;20577;-31
2022/09/19 08:22:00;;;;;;;9.30;2.30;;;13.90;99.90;;;;;;5059978;28;20202;-31
2022/09/19 08:24:28;;;;;;;8.97;2.40;;;14.00;99.90;;;;;;5062781;28;20214;-31
2022/09/19 08:26:58;;;;;;;7.77;2.10;;;14.10;99.90;;;;;;5069476;28;20203;-31
2022/09/19 08:29:28;;;;;;;9.57;2.30;;;14.20;99.90;;;;;;5066880;28;20203;-31
2022/09/19 08:32:02;;;;;;;14.17;2.87;;;14.30;99.90;;;;;;5066049;28;20215;-31
2022/09/19 08:34:32;;;;;;;7.27;2.23;;;14.40;99.90;;;;;;5067516;28;20207;-31
2022/09/19 08:37:02;;;;;;;6.37;2.17;;;14.50;99.90;;;;;;5059925;28;20294;-31
2022/09/19 08:39:29;;;;;;;11.80;2.60;;;14.60;99.90;;;;;;5052317;28;20589;-31
2022/09/19 08:42:08;;;;;;;6.87;1.73;;;14.70;99.90;;;;;;5060354;28;20203;-31
2022/09/19 08:44:36;;;;;;;9.87;2.10;;;14.80;99.90;;;;;;5068173;28;20203;-31
2022/09/19 08:47:09;;;;;;;7.00;1.83;;;14.90;99.90;;;;;;5069282;28;20210;-31
2022/09/19 08:50:13;;;;;;;10.43;2.03;;;14.90;99.90;;;;;;5067280;28;20631;-31
2022/09/19 08:52:46;;;;;;;10.27;2.13;;;15.00;99.90;;;;;;5059064;28;20702;-31
2022/09/19 08:55:18;;;;;;;7.13;1.77;;;15.00;99.90;;;;;;5048306;28;20209;-31
2022/09/19 08:58:00;;;;;;;9.57;1.90;;;15.00;99.90;;;;;;5054129;28;20287;-31
2022/09/19 09:00:39;;;;;;;7.53;2.20;;;15.10;99.90;;;;;;5060257;28;20709;-31
2022/09/19 09:03:15;;;;;;;7.33;1.60;;;15.10;99.90;;;;;;5051497;28;20294;-31
2022/09/19 09:06:01;;;;;;;9.63;1.90;;;15.10;99.90;;;;;;5049013;28;20200;-31
2022/09/19 09:08:48;;;;;;;9.23;1.97;;;15.20;99.90;;;;;;5048676;28;20204;-31
2022/09/19 09:11:15;;;;;;;5.27;1.57;;;15.20;99.90;;;;;;5062449;28;20214;-32
2022/09/19 09:14:20;;;;;;;7.47;1.60;;;15.30;99.90;;;;;;5050320;28;20399;-31
2022/09/19 09:16:49;;;;;;;4.47;1.50;;;15.30;99.90;;;;;;5062265;28;20199;-31
2022/09/19 09:19:28;;;;;;;8.37;1.73;;;15.30;99.90;;;;;;5050311;28;20730;-32
2022/09/19 09:22:32;;;;;;;6.77;1.50;;;15.40;99.90;;;;;;5083848;28;20214;-32
2022/09/19 09:25:20;;;;;;;8.60;1.60;;;15.50;99.90;;;;;;5073995;28;20252;-31
2022/09/19 09:28:02;;;;;;;8.40;1.37;;;15.50;99.90;;;;;;5068398;28;20192;-31
2022/09/19 09:30:37;;;;;;;6.80;1.40;;;15.60;99.90;;;;;;5064665;28;20645;-32
2022/09/19 09:33:29;;;;;;;7.77;1.27;;;15.60;99.90;;;;;;5067816;28;20207;-32
2022/09/19 09:36:15;;;;;;;6.40;1.13;;;15.70;99.90;;;;;;5064852;28;20207;-31
2022/09/19 09:38:54;;;;;;;6.00;1.00;;;15.70;99.90;;;;;;5068536;28;20693;-31
2022/09/19 09:41:45;;;;;;;7.00;1.10;;;15.70;99.90;;;;;;5068419;28;20231;-31
2022/09/19 09:44:16;;;;;;;4.40;1.30;;;15.80;99.90;;;;;;5057190;28;20271;-31
2022/09/19 09:46:48;;;;;;;4.57;0.90;;;15.80;99.90;;;;;;5047236;28;20271;-31
2022/09/19 09:49:17;;;;;;;5.20;1.07;;;15.90;99.90;;;;;;5053392;28;20235;-32
2022/09/19 09:51:58;;;;;;;5.70;1.10;;;15.90;99.90;;;;;;5064665;28;20657;-32
2022/09/19 09:57:57;;;;;;;6.20;1.43;;;16.10;99.90;;;;;;5048417;28;20211;-31
2022/09/19 10:03:49;;;;;;;6.07;1.40;;;16.20;99.90;;;;;;5064832;28;20617;-31
2022/09/19 10:06:31;;;;;;;8.17;1.03;;;16.20;99.90;;;;;;5048619;28;20330;-31
2022/09/19 10:09:02;;;;;;;7.70;1.27;;;16.30;99.90;;;;;;5057127;28;20781;-31
2022/09/19 10:12:03;;;;;;;4.57;1.20;;;16.30;99.90;;;;;;5065066;28;20207;-31
2022/09/19 10:15:01;;;;;;;10.87;1.20;;;16.40;99.90;;;;;;5047031;28;20744;-31
2022/09/19 10:17:39;;;;;;;4.33;0.80;;;16.40;99.90;;;;;;5060787;28;20226;-32
2022/09/19 10:20:15;;;;;;;3.10;0.70;;;16.40;99.90;;;;;;5057425;28;20235;-31
2022/09/19 10:22:42;;;;;;;5.83;1.00;;;16.50;99.90;;;;;;5053021;28;20215;-31
2022/09/19 10:25:14;;;;;;;4.73;1.00;;;16.50;99.90;;;;;;5053535;28;20261;-31
2022/09/19 10:27:45;;;;;;;3.07;0.70;;;16.50;99.90;;;;;;5056378;28;20607;-31
2022/09/19 10:30:34;;;;;;;4.80;1.23;;;16.50;99.90;;;;;;5065942;28;20219;-31
2022/09/19 10:33:24;;;;;;;4.50;1.17;;;16.50;99.90;;;;;;5045640;28;20647;-31
2022/09/19 10:35:56;;;;;;;4.17;1.03;;;16.60;99.90;;;;;;5046285;28;20307;-31
2022/09/19 10:38:26;;;;;;;6.53;1.10;;;16.50;99.90;;;;;;5049869;28;20660;-31
2022/09/19 10:40:58;;;;;;;7.37;1.13;;;16.50;99.90;;;;;;5047948;28;20658;-32
2022/09/19 10:43:34;;;;;;;6.33;1.20;;;16.50;99.90;;;;;;5048022;28;20300;-31
2022/09/19 10:46:14;;;;;;;5.93;1.50;;;16.50;99.90;;;;;;5054310;28;20264;-31
2022/09/19 10:48:58;;;;;;;3.40;0.97;;;16.60;99.90;;;;;;5058790;28;20204;-31
2022/09/19 10:51:43;;;;;;;3.87;1.40;;;16.60;99.90;;;;;;5047471;28;20297;-31
2022/09/19 10:54:31;;;;;;;5.77;1.00;;;16.60;99.90;;;;;;5055631;28;20219;-31
2022/09/19 10:57:01;;;;;;;3.73;0.87;;;16.70;99.90;;;;;;5051908;28;20468;-32
2022/09/19 10:59:36;;;;;;;3.23;0.77;;;16.70;99.90;;;;;;5053786;28;20239;-31
2022/09/19 11:02:09;;;;;;;5.13;0.97;;;16.70;99.90;;;;;;5057149;28;20421;-32
2022/09/19 11:04:37;;;;;;;6.20;1.00;;;16.80;99.90;;;;;;5057168;28;20240;-30
2022/09/19 11:07:18;;;;;;;5.37;1.27;;;16.80;99.90;;;;;;5068375;28;20208;-31
2022/09/19 11:09:46;;;;;;;4.87;1.30;;;16.80;99.90;;;;;;5068932;28;20211;-31
2022/09/19 11:12:16;;;;;;;4.07;1.40;;;16.80;99.90;;;;;;5049388;28;20713;-31
2022/09/19 11:14:46;;;;;;;5.60;1.50;;;16.80;99.90;;;;;;5064849;28;20215;-31
2022/09/19 11:17:31;;;;;;;6.83;1.33;;;16.90;99.90;;;;;;5052560;28;20200;-31
2022/09/19 11:20:23;;;;;;;6.97;1.23;;;16.90;99.90;;;;;;5081618;28;20215;-32
2022/09/19 11:23:14;;;;;;;10.00;2.13;;;16.90;99.90;;;;;;5050802;28;20244;-31
2022/09/19 11:26:11;;;;;;;9.80;1.70;;;17.00;99.90;;;;;;5050582;28;20231;-31
2022/09/19 11:28:54;;;;;;;7.70;1.30;;;17.00;99.90;;;;;;5049394;28;20648;-31
2022/09/19 11:31:43;;;;;;;5.67;1.37;;;17.10;99.90;;;;;;5058625;28;20220;-31
2022/09/19 11:34:51;;;;;;;5.63;1.33;;;17.10;99.90;;;;;;5067946;28;20203;-31
2022/09/19 11:37:47;;;;;;;7.60;1.43;;;17.10;99.90;;;;;;5052393;28;20211;-31
2022/09/19 11:40:50;;;;;;;5.57;1.37;;;17.10;99.90;;;;;;5058334;28;20257;-31
2022/09/19 11:43:30;;;;;;;4.97;1.20;;;17.10;99.90;;;;;;5056130;28;20208;-31
2022/09/19 11:46:18;;;;;;;8.60;1.83;;;17.10;99.90;;;;;;5052272;28;20194;-32
2022/09/19 11:49:26;;;;;;;6.53;1.50;;;17.10;99.90;;;;;;5052735;28;20216;-31
2022/09/19 11:52:27;;;;;;;9.00;1.27;;;17.10;99.90;;;;;;5048227;28;20218;-32
2022/09/19 11:55:13;;;;;;;6.43;1.10;;;17.10;99.90;;;;;;5054756;28;20286;-31
2022/09/19 11:57:54;;;;;;;4.77;1.30;;;17.10;99.90;;;;;;5066857;28;20210;-31
2022/09/19 12:00:25;;;;;;;5.67;0.90;;;17.10;99.90;;;;;;5048404;28;20228;-32
2022/09/19 12:03:16;;;;;;;4.33;0.90;;;17.10;99.90;;;;;;5038372;28;20214;-31
2022/09/19 12:05:49;;;;;;;8.43;1.33;;;17.10;99.90;;;;;;5048518;28;20226;-31
2022/09/19 12:08:28;;;;;;;6.80;1.47;;;17.10;99.90;;;;;;5049155;28;20200;-32
2022/09/19 12:11:08;;;;;;;4.10;1.30;;;17.10;99.90;;;;;;5050015;28;20235;-32
2022/09/19 12:13:53;;;;;;;3.40;1.30;;;17.10;99.90;;;;;;5054408;28;20299;-32
2022/09/19 12:16:40;;;;;;;3.67;0.90;;;17.10;99.90;;;;;;5046379;28;20216;-32
2022/09/19 12:19:35;;;;;;;5.10;1.00;;;17.00;99.90;;;;;;5055228;28;20291;-31
2022/09/19 12:22:20;;;;;;;4.03;1.00;;;17.00;99.90;;;;;;5052370;28;20270;-32
2022/09/19 12:25:08;;;;;;;4.30;0.90;;;16.90;99.90;;;;;;5055569;28;20215;-31
2022/09/19 12:28:06;;;;;;;6.10;1.20;;;16.90;99.90;;;;;;5053050;28;20219;-32
2022/09/19 12:30:41;;;;;;;8.70;1.40;;;16.90;99.90;;;;;;5052778;28;20462;-32
2022/09/19 12:33:14;;;;;;;5.77;1.30;;;17.00;99.90;;;;;;5059895;28;20558;-31
2022/09/19 12:36:04;;;;;;;5.80;1.80;;;17.00;99.90;;;;;;5062033;28;20713;-31
2022/09/19 12:38:56;;;;;;;8.67;1.83;;;17.00;99.90;;;;;;5058660;28;20211;-30
2022/09/19 12:41:28;;;;;;;6.53;1.50;;;17.10;99.90;;;;;;5050511;28;20224;-31
2022/09/19 12:44:16;;;;;;;4.57;1.13;;;17.10;99.90;;;;;;5050463;28;20231;-31
2022/09/19 12:46:43;;;;;;;5.20;1.17;;;17.20;99.90;;;;;;5056388;28;20232;-32
2022/09/19 12:49:25;;;;;;;3.53;1.23;;;17.20;99.90;;;;;;5060965;28;20397;-30
2022/09/19 12:52:20;;;;;;;7.53;1.50;;;17.20;99.90;;;;;;5059990;28;20203;-31
2022/09/19 12:55:08;;;;;;;4.17;0.97;;;17.20;99.90;;;;;;5053557;28;20274;-31
2022/09/19 12:58:04;;;;;;;6.63;1.30;;;17.30;99.90;;;;;;5067116;28;20211;-31
2022/09/19 13:00:39;;;;;;;7.37;1.20;;;17.30;99.90;;;;;;5054564;28;20232;-31
2022/09/19 13:03:35;;;;;;;5.80;1.23;;;17.30;99.90;;;;;;5061606;28;20206;-32
2022/09/19 13:06:11;;;;;;;5.00;1.10;;;17.30;99.90;;;;;;5059603;28;20195;-30
2022/09/19 13:08:53;;;;;;;8.10;1.03;;;17.30;99.90;;;;;;5060576;28;20207;-31
2022/09/19 13:11:25;;;;;;;6.73;1.17;;;17.30;99.90;;;;;;5065135;28;20203;-31
2022/09/19 13:14:20;;;;;;;8.10;1.73;;;17.30;99.90;;;;;;5048257;28;20292;-31
2022/09/19 13:25:27;;;;;;;6.07;1.00;;;17.20;99.90;;;;;;5048157;28;20240;-32
2022/09/19 13:28:22;;;;;;;8.43;1.17;;;17.20;99.90;;;;;;5058672;28;20207;-31
2022/09/19 13:31:12;;;;;;;5.83;0.90;;;17.20;99.90;;;;;;5060654;28;20208;-31
2022/09/19 13:33:57;;;;;;;5.40;1.27;;;17.20;99.90;;;;;;5055800;28;20203;-31
2022/09/19 13:36:24;;;;;;;8.13;1.50;;;17.30;99.90;;;;;;5070976;28;20199;-32
2022/09/19 13:38:56;;;;;;;6.30;1.03;;;17.20;99.90;;;;;;5058747;28;20308;-31
2022/09/19 13:41:29;;;;;;;3.10;1.00;;;17.20;99.90;;;;;;5053570;28;20322;-31
2022/09/19 13:44:06;;;;;;;9.23;1.70;;;17.20;99.90;;;;;;5048858;28;20207;-31
2022/09/19 13:46:51;;;;;;;7.00;1.23;;;17.20;99.90;;;;;;5054594;28;20203;-32
2022/09/19 13:49:41;;;;;;;3.37;0.83;;;17.10;99.90;;;;;;5050120;28;20196;-32
2022/09/19 13:52:18;;;;;;;5.87;0.97;;;17.10;99.90;;;;;;5063250;28;20502;-31